createdAt,value
2023-04-08T00:07:47.228Z,15.1
2023-04-08T00:12:29.940Z,16.4
2023-04-08T00:17:12.794Z,15.3
2023-04-08T00:21:55.488Z,12.8
2023-04-08T00:31:20.919Z,13.5
2023-04-08T00:36:03.675Z,12
2023-04-08T00:40:46.372Z,14
2023-04-08T00:45:28.387Z,12.9
2023-04-08T00:54:53.851Z,13
2023-04-08T00:59:36.641Z,14.1
2023-04-08T01:13:44.855Z,12.9
2023-04-08T01:18:27.517Z,14
2023-04-08T01:23:10.238Z,15.1
2023-04-08T01:32:35.715Z,14.3
2023-04-08T01:37:18.499Z,13
2023-04-08T01:42:01.237Z,12.8
2023-04-08T01:46:43.233Z,14.8
2023-04-08T01:51:26.094Z,14
2023-04-08T01:56:08.683Z,14
2023-04-08T02:05:34.111Z,13.2
2023-04-08T02:19:42.374Z,12.9
2023-04-08T02:24:25.092Z,12.9
2023-04-08T02:29:07.097Z,13.3
2023-04-08T02:38:32.541Z,13.6
2023-04-08T02:43:15.282Z,13.6
2023-04-08T02:47:57.985Z,13.8
2023-04-08T02:52:40.703Z,15
2023-04-08T02:57:23.450Z,13.3
2023-04-08T03:02:06.143Z,12.6
2023-04-08T03:06:48.968Z,13.6
2023-04-08T03:20:57.135Z,13.8
2023-04-08T03:30:22.562Z,14
2023-04-08T03:39:48.125Z,13.4
2023-04-08T03:44:30.851Z,12.5
2023-04-08T03:49:13.607Z,12.1
2023-04-08T03:53:55.550Z,13
2023-04-08T04:03:20.989Z,11.9
2023-04-08T04:08:03.704Z,11
2023-04-08T04:12:46.426Z,11.7
2023-04-08T04:26:54.685Z,11.2
2023-04-08T04:31:37.410Z,11.9
2023-04-08T04:45:45.575Z,11.6
2023-04-08T04:50:28.287Z,10.9
2023-04-08T04:55:11.103Z,11.5
2023-04-08T05:04:36.551Z,11.9
2023-04-08T05:09:19.270Z,12.2
2023-04-08T05:14:02.030Z,11.8
2023-04-08T05:18:44.785Z,9.39
2023-04-08T05:28:10.245Z,11.9
2023-04-08T05:37:35.679Z,11.5
2023-04-08T05:42:17.705Z,12
2023-04-08T05:51:43.148Z,14.2
2023-04-08T05:56:25.869Z,11.7
2023-04-08T06:01:08.711Z,13.6
2023-04-08T06:10:34.014Z,14.6
2023-04-08T06:15:16.840Z,15.3
2023-04-08T06:19:59.561Z,15.1
2023-04-08T06:24:42.273Z,14.9
2023-04-08T06:29:24.985Z,15.9
2023-04-08T06:34:07.712Z,17.9
2023-04-08T06:38:50.495Z,16.1
2023-04-08T06:43:33.150Z,16
2023-04-08T06:52:58.760Z,17.6
2023-04-08T07:02:24.126Z,15.4
2023-04-08T07:11:49.566Z,15.9
2023-04-08T07:21:15.103Z,17.9
2023-04-08T07:25:57.824Z,17.5
2023-04-08T07:35:23.266Z,17.1
2023-04-08T07:40:05.991Z,19.9
2023-04-08T07:44:48.700Z,18.4
2023-04-08T07:58:56.992Z,18.4
2023-04-08T08:03:39.691Z,18.6
2023-04-08T08:17:47.855Z,17.5
2023-04-08T08:22:30.570Z,17.1
2023-04-08T08:27:13.275Z,15.5
2023-04-08T08:31:56.104Z,14.2
2023-04-08T08:36:39.316Z,16.79
2023-04-08T08:41:22.637Z,13.2
2023-04-08T08:46:05.893Z,13.5
2023-04-08T08:50:49.189Z,10.9
2023-04-08T08:55:32.401Z,10.4
2023-04-08T09:00:15.723Z,11.5
2023-04-08T09:09:42.179Z,10.8
2023-04-08T09:14:25.489Z,9.6
2023-04-08T09:19:08.698Z,10.1
2023-04-08T09:23:52.044Z,7.6
2023-04-08T09:28:35.305Z,10.3
2023-04-08T09:33:18.594Z,8.6
2023-04-08T09:42:46.940Z,8.8
2023-04-08T09:47:31.140Z,9.5
2023-04-08T09:52:15.475Z,10
2023-04-08T10:01:43.797Z,9.89
2023-04-08T10:06:27.965Z,9.5
2023-04-08T10:11:12.140Z,10.3
2023-04-08T10:15:56.265Z,10.7
2023-04-08T10:20:40.513Z,9.7
2023-04-08T10:30:08.831Z,8.39
2023-04-08T10:34:52.983Z,9.1
2023-04-08T10:39:37.167Z,8.7
2023-04-08T10:49:05.512Z,8.1
2023-04-08T10:53:49.683Z,8.8
2023-04-08T11:03:18.181Z,7.7
2023-04-08T11:08:02.317Z,8.8
2023-04-08T11:12:46.533Z,7.4
2023-04-08T11:17:30.659Z,8.6
2023-04-08T11:22:14.906Z,8
2023-04-08T11:26:59.044Z,8.1
2023-04-08T11:31:43.251Z,7.3
2023-04-08T11:36:27.341Z,7.2
2023-04-08T11:41:11.577Z,8.5
2023-04-08T11:45:55.736Z,8.3
2023-04-08T11:50:40.162Z,7.9
2023-04-08T11:55:24.038Z,7.4
2023-04-08T12:00:08.247Z,13.2
2023-04-08T12:04:52.508Z,7.8
2023-04-08T12:09:36.590Z,7.2
2023-04-08T12:14:20.711Z,7.8
2023-04-08T12:19:04.932Z,7.2
2023-04-08T12:28:33.281Z,7.8
2023-04-08T12:38:01.626Z,8.39
2023-04-08T12:42:45.760Z,6.9
2023-04-08T12:47:30.086Z,8.39
2023-04-08T12:56:58.429Z,9.1
2023-04-08T13:01:42.661Z,10.3
2023-04-08T13:11:10.987Z,11.8
2023-04-08T13:15:55.509Z,8.7
2023-04-08T13:20:39.716Z,8.3
2023-04-08T13:30:08.485Z,8.5
2023-04-08T13:34:52.735Z,14.6
2023-04-08T13:39:37.330Z,8.39
2023-04-08T13:44:21.551Z,7.2
2023-04-08T13:49:05.888Z,7.3
2023-04-08T13:53:49.977Z,5.7
2023-04-08T13:58:34.208Z,6.8
2023-04-08T14:03:18.324Z,6.2
2023-04-08T14:08:02.560Z,8.89
2023-04-08T14:17:30.895Z,7
2023-04-08T14:22:15.016Z,7
2023-04-08T14:26:59.246Z,7.9
2023-04-08T14:36:27.588Z,6.8
2023-04-08T14:41:11.771Z,6.5
2023-04-08T14:45:55.926Z,5.4
2023-04-08T14:50:40.045Z,6.2
2023-04-08T14:55:24.411Z,5.4
2023-04-08T15:00:08.534Z,5.8
2023-04-08T15:04:52.822Z,5.8
2023-04-08T15:09:36.881Z,7.3
2023-04-08T15:14:21.103Z,6.4
2023-04-08T15:23:49.444Z,6.1
2023-04-08T15:28:33.576Z,5.9
2023-04-08T15:38:02.443Z,6.1
2023-04-08T15:42:47.039Z,6.4
2023-04-08T15:47:31.258Z,5.7
2023-04-08T15:52:15.700Z,6.3
2023-04-08T15:56:59.742Z,6.6
2023-04-08T16:01:44.034Z,6.9
2023-04-08T16:06:28.042Z,7.3
2023-04-08T16:11:12.288Z,7.2
2023-04-08T16:15:56.406Z,6.7
2023-04-08T16:20:40.654Z,6.1
2023-04-08T16:30:09.038Z,7.1
2023-04-08T16:34:53.245Z,7.2
2023-04-08T16:39:37.369Z,6.5
2023-04-08T16:44:21.594Z,6.5
2023-04-08T16:49:05.699Z,6.4
2023-04-08T16:58:34.097Z,7.5
2023-04-08T17:03:18.324Z,7.6
2023-04-08T17:08:02.609Z,8.5
2023-04-08T17:17:30.780Z,10.2
2023-04-08T17:22:15.008Z,9.39
2023-04-08T17:31:43.344Z,8.2
2023-04-08T17:36:27.476Z,9.6
2023-04-08T17:41:11.694Z,9.8
2023-04-08T17:45:55.319Z,8.39
2023-04-08T17:50:38.638Z,9.7
2023-04-08T17:55:21.851Z,9.5
2023-04-08T18:00:05.175Z,10.8
2023-04-08T18:04:48.483Z,10
2023-04-08T18:09:31.723Z,11.5
2023-04-08T18:14:14.543Z,11.4
2023-04-08T18:18:57.766Z,13.5
2023-04-08T18:23:41.073Z,12.7
2023-04-08T18:28:24.302Z,14.5
2023-04-08T18:33:07.529Z,13.1
2023-04-08T18:42:34.067Z,11.3
2023-04-08T18:47:17.383Z,12.3
2023-04-08T18:52:00.342Z,15.1
2023-04-08T18:56:43.526Z,13.1
2023-04-08T19:01:26.846Z,13.3
2023-04-08T19:06:10.069Z,14
2023-04-08T19:10:53.416Z,16
2023-04-08T19:15:36.608Z,16.7
2023-04-08T19:20:19.927Z,20.6
2023-04-08T19:25:03.156Z,21.5
2023-04-08T19:29:46.182Z,16.1
2023-04-08T19:34:29.394Z,15.6
2023-04-08T19:39:12.705Z,19.79
2023-04-08T19:43:55.981Z,21
2023-04-08T19:48:39.242Z,20.5
2023-04-08T19:53:22.470Z,20.4
2023-04-08T19:58:05.789Z,21.5
2023-04-08T20:02:48.610Z,24.9
2023-04-08T20:07:31.832Z,28.1
2023-04-08T20:12:15.159Z,26.2
2023-04-08T20:16:58.392Z,24.7
2023-04-08T20:21:41.397Z,25.2
2023-04-08T20:26:24.627Z,23.2
2023-04-08T20:31:07.941Z,17.6
2023-04-08T20:40:33.990Z,17.7
2023-04-08T20:45:17.296Z,19.1
2023-04-08T20:50:00.526Z,18.29
2023-04-08T20:54:43.848Z,16.29
2023-04-08T20:59:27.060Z,19
2023-04-08T21:04:10.394Z,17
2023-04-08T21:08:53.648Z,15.7
2023-04-08T21:13:36.929Z,16
2023-04-08T21:18:20.153Z,15
2023-04-08T21:23:03.466Z,14.4
2023-04-08T21:27:46.699Z,14.2
2023-04-08T21:32:30.011Z,13.2
2023-04-08T21:37:13.232Z,13.3
2023-04-08T21:41:56.555Z,14.2
2023-04-08T21:46:39.776Z,14.2
2023-04-08T21:56:06.315Z,15.9
2023-04-08T22:00:49.545Z,15.7
2023-04-08T22:05:32.859Z,16.4
2023-04-08T22:10:16.132Z,16
2023-04-08T22:14:59.397Z,15.5
2023-04-08T22:19:42.621Z,15.5
2023-04-08T22:24:25.441Z,15
2023-04-08T22:29:08.804Z,15.2
2023-04-08T22:38:35.304Z,14.9
2023-04-08T22:43:18.522Z,15.3
2023-04-08T22:48:01.846Z,14.4
2023-04-08T22:52:45.070Z,15.6
2023-04-08T22:57:28.391Z,16
2023-04-08T23:02:11.623Z,14.8
2023-04-08T23:06:54.934Z,14.4
2023-04-08T23:11:38.146Z,16
2023-04-08T23:16:21.474Z,16.29
2023-04-08T23:21:04.693Z,14.7
2023-04-08T23:25:47.513Z,13.3
2023-04-08T23:30:30.831Z,15.3
2023-04-08T23:35:14.046Z,16.2
2023-04-08T23:39:57.369Z,17.7
2023-04-08T23:44:40.599Z,17
2023-04-08T23:49:23.820Z,17.9
2023-04-08T23:54:07.135Z,16.79
2023-04-08T23:58:50.362Z,16.79
